Time;durP1;ratioP1;P1;durP2;ratioP2;P2;SDS_P1;SDS_P2;PMS_P1;PMS_P2;Temp;Humidity;BMP_temperature;BMP_pressure;BME280_temperature;BME280_humidity;BME280_pressure;Samples;Min_cycle;Max_cycle;Signal;HPM_P1;HPM_P2
2023/01/18 00:14:20;;;;;;;169.00;62.30;;;;;;;2.25;86.69;98217.34;683017;1260;139708;-77
2023/01/18 00:29:23;;;;;;;151.10;57.50;;;;;;;2.09;86.67;98209.65;683216;1258;139375;-78
2023/01/18 00:44:26;;;;;;;159.80;57.30;;;;;;;1.91;86.73;98207.44;683158;1260;139337;-78
2023/01/18 00:59:30;;;;;;;40.10;19.40;;;;;;;1.73;86.89;98228.89;683164;1258;138789;-78
2023/01/18 01:29:59;;;;;;;120.60;46.90;;;;;;;1.64;87.06;98224.52;683101;1259;141958;-78
2023/01/18 01:45:02;;;;;;;125.60;47.90;;;;;;;1.51;87.28;98207.02;683089;1260;138758;-79
2023/01/18 02:00:18;;;;;;;109.20;43.20;;;;;;;1.45;87.25;98213.52;683233;1260;139103;-79
2023/01/18 02:15:28;;;;;;;70.80;30.10;;;;;;;1.37;88.00;98223.43;683335;1260;139501;-79
2023/01/18 02:30:41;;;;;;;84.20;33.30;;;;;;;1.43;88.50;98206.58;683302;1261;139014;-79
2023/01/18 03:01:16;;;;;;;68.60;29.60;;;;;;;1.49;88.58;98177.29;683317;1260;139345;-78
2023/01/18 03:16:29;;;;;;;71.80;29.60;;;;;;;1.60;89.22;98184.90;683162;1259;139196;-79
2023/01/18 03:47:04;;;;;;;68.90;28.80;;;;;;;1.67;89.38;98185.84;683139;1261;138577;-79
2023/01/18 04:02:08;;;;;;;71.60;32.40;;;;;;;1.68;89.02;98187.65;683366;1261;138688;-78
2023/01/18 04:17:12;;;;;;;106.80;39.90;;;;;;;1.68;89.18;98183.67;683159;1262;138588;-79
2023/01/18 04:32:16;;;;;;;97.70;36.00;;;;;;;1.75;89.97;98178.80;683160;1272;140175;-79
2023/01/18 04:47:19;;;;;;;128.80;53.10;;;;;;;1.89;90.06;98184.67;682943;1260;139161;-78
2023/01/18 05:02:22;;;;;;;111.60;44.30;;;;;;;1.93;90.18;98184.03;683101;1260;138622;-78
2023/01/18 05:17:26;;;;;;;70.60;33.20;;;;;;;1.99;90.84;98161.23;683218;1257;138589;-79
2023/01/18 05:32:29;;;;;;;82.40;35.60;;;;;;;2.17;91.75;98157.42;682999;1262;138791;-79
2023/01/18 05:47:32;;;;;;;184.40;76.50;;;;;;;2.29;91.67;98153.66;683427;1260;138653;-79
2023/01/18 06:02:35;;;;;;;133.00;59.90;;;;;;;2.36;91.68;98130.21;683201;1259;138875;-79
2023/01/18 06:17:39;;;;;;;137.40;61.60;;;;;;;2.47;91.32;98108.59;683267;1257;140895;-79
2023/01/18 06:32:42;;;;;;;262.30;98.80;;;;;;;2.47;91.41;98091.62;683242;1259;139435;-79
2023/01/18 06:47:45;;;;;;;222.50;93.90;;;;;;;2.48;91.18;98083.96;683065;1261;138869;-79
2023/01/18 07:02:50;;;;;;;254.60;100.20;;;;;;;2.46;91.13;98078.10;683159;1259;139054;-79
2023/01/18 07:17:54;;;;;;;272.20;107.80;;;;;;;2.51;91.21;98102.71;683304;1260;138793;-79
2023/01/18 07:32:57;;;;;;;217.00;86.00;;;;;;;2.51;91.44;98128.06;683178;1260;139860;-79
2023/01/18 07:48:01;;;;;;;205.00;70.70;;;;;;;2.66;91.76;98115.17;683264;1261;139060;-80
2023/01/18 08:03:04;;;;;;;129.10;51.00;;;;;;;2.84;92.19;98123.41;682860;1261;138792;-80
2023/01/18 08:18:08;;;;;;;183.40;69.70;;;;;;;3.07;92.81;98122.89;683180;1261;139721;-79
2023/01/18 08:33:12;;;;;;;216.60;90.00;;;;;;;3.26;93.26;98126.67;683285;1260;139267;-79
2023/01/18 08:48:15;;;;;;;67.00;34.30;;;;;;;3.35;94.26;98146.79;683278;1261;139915;-79
2023/01/18 09:03:20;;;;;;;354.00;132.50;;;;;;;3.56;94.13;98154.66;683153;1261;139066;-78
2023/01/18 09:18:24;;;;;;;134.80;57.20;;;;;;;3.52;95.16;98147.13;682949;1257;139139;-78
2023/01/18 09:33:28;;;;;;;139.70;56.00;;;;;;;3.73;95.26;98127.02;683151;1261;138761;-78
2023/01/18 09:48:41;;;;;;;168.90;58.50;;;;;;;4.10;95.31;98105.53;683318;1261;139117;-78
2023/01/18 10:03:50;;;;;;;105.70;44.60;;;;;;;4.58;95.35;98082.90;682928;1262;139388;-79
2023/01/18 10:18:56;;;;;;;80.40;36.40;;;;;;;4.95;94.53;98026.33;683154;1256;139083;-78
2023/01/18 10:34:01;;;;;;;71.60;35.60;;;;;;;5.08;93.72;98016.29;683040;1258;139200;-78
2023/01/18 10:49:07;;;;;;;89.70;38.10;;;;;;;4.92;93.36;97996.66;683073;1260;138449;-78
2023/01/18 11:04:21;;;;;;;63.40;32.40;;;;;;;4.80;92.45;98004.79;682890;1257;138712;-77
2023/01/18 11:19:24;;;;;;;60.30;28.00;;;;;;;4.62;92.61;98036.52;683299;1263;138466;-78
2023/01/18 11:34:40;;;;;;;59.20;28.30;;;;;;;4.50;92.09;98032.94;682954;1257;138793;-77
2023/01/18 11:50:32;;;;;;;121.10;50.60;;;;;;;4.33;92.78;98003.02;683072;1261;138898;-79
2023/01/18 12:05:51;;;;;;;83.80;34.90;;;;;;;4.13;93.47;97987.59;682860;1257;138722;-78
2023/01/18 12:21:10;;;;;;;66.20;29.00;;;;;;;4.13;93.43;97967.55;682726;1263;139790;-78
2023/01/18 12:36:28;;;;;;;93.20;34.80;;;;;;;4.06;93.12;97949.23;682735;1257;138603;-78
2023/01/18 12:51:36;;;;;;;62.40;26.70;;;;;;;4.05;93.36;97941.36;682804;1261;138591;-79
2023/01/18 13:06:41;;;;;;;75.90;34.10;;;;;;;3.94;93.30;97956.27;682781;1263;138497;-78
2023/01/18 13:22:06;;;;;;;97.40;42.50;;;;;;;3.98;93.44;97965.67;683039;1264;138452;-77
2023/01/18 13:37:44;;;;;;;85.80;34.60;;;;;;;3.91;93.64;97981.11;682975;1257;138404;-77
2023/01/18 13:53:13;;;;;;;78.80;33.30;;;;;;;3.76;94.17;98008.66;683064;1263;140223;-76
2023/01/18 14:08:23;;;;;;;78.90;35.80;;;;;;;3.67;94.67;98035.47;682972;1263;139468;-77
2023/01/18 14:23:50;;;;;;;78.50;30.60;;;;;;;3.69;94.76;98055.30;683118;1263;138993;-78
2023/01/18 14:39:28;;;;;;;51.90;24.10;;;;;;;3.64;94.80;98052.34;683035;1260;138648;-76
2023/01/18 14:54:32;;;;;;;;;;;;;;;3.66;95.36;98054.20;683017;1264;138959;-77
2023/01/18 15:09:38;;;;;;;64.80;30.30;;;;;;;3.66;95.88;98052.45;682936;1264;124869;-77
2023/01/18 15:24:43;;;;;;;74.50;32.70;;;;;;;3.63;95.94;98071.88;683114;1263;138661;-77
2023/01/18 15:39:50;;;;;;;70.40;30.90;;;;;;;3.61;96.44;98087.38;682913;1258;139258;-76
2023/01/18 15:54:53;;;;;;;69.40;30.60;;;;;;;3.59;96.78;98100.31;683048;1262;139201;-76
2023/01/18 16:10:18;;;;;;;55.30;26.90;;;;;;;3.53;97.08;98106.05;682926;1258;138766;-77
2023/01/18 16:25:22;;;;;;;158.70;53.00;;;;;;;3.51;97.76;98123.05;682920;1258;139534;-77
2023/01/18 16:40:27;;;;;;;109.70;45.60;;;;;;;3.63;97.38;98140.02;683041;1257;140693;-77
2023/01/18 16:55:30;;;;;;;126.30;50.50;;;;;;;3.69;97.74;98151.09;683090;1262;138465;-76
2023/01/18 17:10:37;;;;;;;60.00;27.10;;;;;;;3.65;97.92;98171.48;682781;1259;139665;-75
2023/01/18 17:25:40;;;;;;;68.10;27.90;;;;;;;3.67;98.49;98190.70;683093;1259;138525;-77
2023/01/18 17:40:43;;;;;;;64.10;27.30;;;;;;;3.72;98.17;98217.40;682987;1262;138983;-78
2023/01/18 17:55:47;;;;;;;87.20;42.60;;;;;;;3.73;98.69;98257.69;683239;1263;139525;-78
2023/01/18 18:10:50;;;;;;;77.20;35.20;;;;;;;3.80;98.58;98278.00;682695;1259;139217;-79
2023/01/18 18:25:54;;;;;;;94.00;40.80;;;;;;;3.86;98.72;98308.76;683137;1262;138507;-79
2023/01/18 18:41:03;;;;;;;117.20;62.90;;;;;;;3.94;99.02;98340.55;683013;1263;139313;-78
2023/01/18 18:56:09;;;;;;;152.00;57.40;;;;;;;4.04;98.95;98384.94;683234;1260;139547;-78
2023/01/18 19:11:14;;;;;;;118.70;44.20;;;;;;;4.04;99.57;98416.68;683107;1263;138761;-78
2023/01/18 19:26:24;;;;;;;170.00;60.10;;;;;;;4.07;99.83;98437.44;682947;1262;137535;-78
2023/01/18 19:41:30;;;;;;;324.70;119.40;;;;;;;4.18;99.96;98451.00;683019;1265;138889;-79
2023/01/18 19:56:34;;;;;;;118.50;45.60;;;;;;;4.23;100.00;98479.67;682931;1261;140461;-79
2023/01/18 20:11:37;;;;;;;113.10;45.90;;;;;;;4.30;99.82;98508.61;683057;1262;140019;-79
2023/01/18 20:26:41;;;;;;;120.10;44.70;;;;;;;4.20;99.92;98538.92;683109;1259;139729;-80
2023/01/18 20:41:45;;;;;;;104.00;40.30;;;;;;;4.08;100.00;98590.88;683155;1257;138699;-81
2023/01/18 20:56:48;;;;;;;118.80;43.00;;;;;;;4.01;100.00;98616.41;682740;1262;139452;-77
2023/01/18 21:11:53;;;;;;;104.40;37.70;;;;;;;4.07;100.00;98646.15;683171;1258;139369;-78
2023/01/18 21:26:56;;;;;;;178.00;58.80;;;;;;;4.07;100.00;98672.45;682983;1257;163119;-78
2023/01/18 21:57:24;;;;;;;81.10;34.30;;;;;;;4.12;100.00;98719.40;682917;1259;139706;-78
2023/01/18 22:12:27;;;;;;;91.50;37.30;;;;;;;4.07;100.00;98766.02;682868;1262;138944;-77
2023/01/18 22:27:31;;;;;;;87.00;39.30;;;;;;;4.08;100.00;98790.90;682816;1261;138937;-77
2023/01/18 22:42:34;;;;;;;73.30;32.70;;;;;;;4.05;100.00;98830.88;682986;1260;140025;-77
2023/01/18 22:57:37;;;;;;;84.00;34.80;;;;;;;4.06;100.00;98856.41;682971;1260;139817;-77
2023/01/18 23:12:40;;;;;;;68.60;30.60;;;;;;;4.06;100.00;98857.34;682820;1259;139907;-77
2023/01/18 23:27:44;;;;;;;66.00;28.50;;;;;;;4.15;100.00;98853.94;682495;1260;139925;-76
2023/01/18 23:58:08;;;;;;;61.70;29.60;;;;;;;3.93;100.00;98921.64;682452;1259;139899;-77
